sensor_id;sensor_type;location;lat;lon;timestamp;P1;durP1;ratioP1;P2;durP2;ratioP2
45762;SDS011;37512;52.408;13.356;2023-05-16T00:00:17;7.53;;;5.90;;
45762;SDS011;37512;52.408;13.356;2023-05-16T00:04:19;8.32;;;6.25;;
45762;SDS011;37512;52.408;13.356;2023-05-16T00:08:21;8.23;;;6.07;;
45762;SDS011;37512;52.408;13.356;2023-05-16T00:12:23;8.65;;;5.80;;
45762;SDS011;37512;52.408;13.356;2023-05-16T00:16:25;8.43;;;7.18;;
45762;SDS011;37512;52.408;13.356;2023-05-16T00:20:29;9.50;;;6.43;;
45762;SDS011;37512;52.408;13.356;2023-05-16T00:24:32;8.32;;;7.30;;
45762;SDS011;37512;52.408;13.356;2023-05-16T00:28:34;11.88;;;7.68;;
45762;SDS011;37512;52.408;13.356;2023-05-16T00:32:36;13.73;;;7.15;;
45762;SDS011;37512;52.408;13.356;2023-05-16T00:36:37;9.73;;;7.43;;
45762;SDS011;37512;52.408;13.356;2023-05-16T00:40:39;10.30;;;8.30;;
45762;SDS011;37512;52.408;13.356;2023-05-16T00:44:41;12.48;;;9.00;;
45762;SDS011;37512;52.408;13.356;2023-05-16T00:48:42;13.32;;;8.55;;
45762;SDS011;37512;52.408;13.356;2023-05-16T00:52:43;16.10;;;8.88;;
45762;SDS011;37512;52.408;13.356;2023-05-16T00:56:45;16.45;;;9.10;;
45762;SDS011;37512;52.408;13.356;2023-05-16T01:00:46;16.58;;;11.18;;
45762;SDS011;37512;52.408;13.356;2023-05-16T01:04:49;15.10;;;10.52;;
45762;SDS011;37512;52.408;13.356;2023-05-16T01:08:51;14.38;;;10.52;;
45762;SDS011;37512;52.408;13.356;2023-05-16T01:13:00;14.82;;;10.00;;
45762;SDS011;37512;52.408;13.356;2023-05-16T01:29:57;14.70;;;10.95;;
45762;SDS011;37512;52.408;13.356;2023-05-16T01:33:59;15.85;;;11.77;;
45762;SDS011;37512;52.408;13.356;2023-05-16T01:38:04;16.98;;;11.50;;
45762;SDS011;37512;52.408;13.356;2023-05-16T01:42:14;19.88;;;12.02;;
45762;SDS011;37512;52.408;13.356;2023-05-16T01:46:20;17.20;;;11.35;;
45762;SDS011;37512;52.408;13.356;2023-05-16T01:54:30;14.80;;;10.60;;
45762;SDS011;37512;52.408;13.356;2023-05-16T01:58:33;18.95;;;12.15;;
45762;SDS011;37512;52.408;13.356;2023-05-16T02:02:37;16.52;;;11.43;;
45762;SDS011;37512;52.408;13.356;2023-05-16T02:06:38;14.80;;;11.25;;
45762;SDS011;37512;52.408;13.356;2023-05-16T02:10:40;13.15;;;10.23;;
45762;SDS011;37512;52.408;13.356;2023-05-16T02:14:41;11.68;;;9.63;;
45762;SDS011;37512;52.408;13.356;2023-05-16T02:18:43;12.88;;;10.00;;
45762;SDS011;37512;52.408;13.356;2023-05-16T02:22:45;13.98;;;10.52;;
45762;SDS011;37512;52.408;13.356;2023-05-16T02:26:47;15.40;;;10.43;;
45762;SDS011;37512;52.408;13.356;2023-05-16T02:30:55;16.20;;;10.23;;
45762;SDS011;37512;52.408;13.356;2023-05-16T02:35:00;9.85;;;7.10;;
45762;SDS011;37512;52.408;13.356;2023-05-16T02:39:02;14.40;;;10.27;;
45762;SDS011;37512;52.408;13.356;2023-05-16T02:43:07;16.10;;;10.02;;
45762;SDS011;37512;52.408;13.356;2023-05-16T02:47:09;13.13;;;9.18;;
45762;SDS011;37512;52.408;13.356;2023-05-16T02:51:10;16.23;;;10.27;;
45762;SDS011;37512;52.408;13.356;2023-05-16T02:55:12;15.75;;;9.80;;
45762;SDS011;37512;52.408;13.356;2023-05-16T02:59:22;16.83;;;10.45;;
45762;SDS011;37512;52.408;13.356;2023-05-16T03:03:23;15.50;;;10.55;;
45762;SDS011;37512;52.408;13.356;2023-05-16T03:07:25;14.55;;;9.35;;
45762;SDS011;37512;52.408;13.356;2023-05-16T03:11:26;16.23;;;10.52;;
45762;SDS011;37512;52.408;13.356;2023-05-16T03:15:29;13.63;;;8.13;;
45762;SDS011;37512;52.408;13.356;2023-05-16T03:19:30;19.38;;;11.82;;
45762;SDS011;37512;52.408;13.356;2023-05-16T03:23:32;17.23;;;9.80;;
45762;SDS011;37512;52.408;13.356;2023-05-16T03:27:33;11.13;;;6.40;;
45762;SDS011;37512;52.408;13.356;2023-05-16T03:31:35;26.67;;;13.65;;
45762;SDS011;37512;52.408;13.356;2023-05-16T03:35:37;20.85;;;12.48;;
45762;SDS011;37512;52.408;13.356;2023-05-16T03:39:39;15.00;;;10.60;;
45762;SDS011;37512;52.408;13.356;2023-05-16T03:43:40;18.52;;;13.10;;
45762;SDS011;37512;52.408;13.356;2023-05-16T03:47:42;16.60;;;12.82;;
45762;SDS011;37512;52.408;13.356;2023-05-16T03:51:44;17.73;;;12.10;;
45762;SDS011;37512;52.408;13.356;2023-05-16T03:55:46;21.38;;;13.63;;
45762;SDS011;37512;52.408;13.356;2023-05-16T03:59:49;19.52;;;13.40;;
45762;SDS011;37512;52.408;13.356;2023-05-16T04:03:50;17.70;;;12.18;;
45762;SDS011;37512;52.408;13.356;2023-05-16T04:07:52;16.70;;;11.90;;
45762;SDS011;37512;52.408;13.356;2023-05-16T04:11:53;21.00;;;14.73;;
45762;SDS011;37512;52.408;13.356;2023-05-16T04:15:58;20.98;;;14.27;;
45762;SDS011;37512;52.408;13.356;2023-05-16T04:20:00;19.60;;;12.77;;
45762;SDS011;37512;52.408;13.356;2023-05-16T04:24:02;16.52;;;11.55;;
45762;SDS011;37512;52.408;13.356;2023-05-16T04:28:04;14.82;;;10.02;;
45762;SDS011;37512;52.408;13.356;2023-05-16T04:32:06;16.25;;;12.20;;
45762;SDS011;37512;52.408;13.356;2023-05-16T04:36:08;19.52;;;12.80;;
45762;SDS011;37512;52.408;13.356;2023-05-16T04:40:09;18.67;;;11.88;;
45762;SDS011;37512;52.408;13.356;2023-05-16T04:44:13;22.10;;;13.65;;
45762;SDS011;37512;52.408;13.356;2023-05-16T04:48:14;17.30;;;13.02;;
45762;SDS011;37512;52.408;13.356;2023-05-16T04:52:16;19.05;;;12.57;;
45762;SDS011;37512;52.408;13.356;2023-05-16T04:56:18;17.10;;;11.40;;
45762;SDS011;37512;52.408;13.356;2023-05-16T05:00:20;14.88;;;10.68;;
45762;SDS011;37512;52.408;13.356;2023-05-16T05:04:22;16.98;;;12.13;;
45762;SDS011;37512;52.408;13.356;2023-05-16T05:08:24;17.45;;;12.80;;
45762;SDS011;37512;52.408;13.356;2023-05-16T05:12:26;18.60;;;11.07;;
45762;SDS011;37512;52.408;13.356;2023-05-16T05:16:28;17.05;;;12.32;;
45762;SDS011;37512;52.408;13.356;2023-05-16T05:20:29;19.85;;;12.02;;
45762;SDS011;37512;52.408;13.356;2023-05-16T05:24:31;14.73;;;11.10;;
45762;SDS011;37512;52.408;13.356;2023-05-16T05:28:32;20.17;;;11.95;;
45762;SDS011;37512;52.408;13.356;2023-05-16T05:32:34;18.58;;;11.40;;
45762;SDS011;37512;52.408;13.356;2023-05-16T05:36:35;18.27;;;11.57;;
45762;SDS011;37512;52.408;13.356;2023-05-16T05:40:37;17.20;;;11.63;;
45762;SDS011;37512;52.408;13.356;2023-05-16T05:44:38;19.27;;;11.70;;
45762;SDS011;37512;52.408;13.356;2023-05-16T05:54:02;15.60;;;10.65;;
45762;SDS011;37512;52.408;13.356;2023-05-16T05:58:04;17.90;;;10.60;;
45762;SDS011;37512;52.408;13.356;2023-05-16T06:02:07;19.58;;;12.23;;
45762;SDS011;37512;52.408;13.356;2023-05-16T06:06:09;17.02;;;10.65;;
45762;SDS011;37512;52.408;13.356;2023-05-16T06:10:10;18.65;;;11.48;;
45762;SDS011;37512;52.408;13.356;2023-05-16T06:14:12;10.25;;;5.63;;
45762;SDS011;37512;52.408;13.356;2023-05-16T06:18:15;14.85;;;10.40;;
45762;SDS011;37512;52.408;13.356;2023-05-16T06:22:17;17.48;;;10.18;;
45762;SDS011;37512;52.408;13.356;2023-05-16T06:26:19;15.05;;;10.02;;
45762;SDS011;37512;52.408;13.356;2023-05-16T06:30:22;12.02;;;8.55;;
45762;SDS011;37512;52.408;13.356;2023-05-16T06:34:24;10.90;;;7.10;;
45762;SDS011;37512;52.408;13.356;2023-05-16T06:38:28;11.50;;;8.45;;
45762;SDS011;37512;52.408;13.356;2023-05-16T06:42:29;13.35;;;9.07;;
45762;SDS011;37512;52.408;13.356;2023-05-16T06:46:31;13.43;;;7.78;;
45762;SDS011;37512;52.408;13.356;2023-05-16T06:50:33;10.73;;;7.85;;
45762;SDS011;37512;52.408;13.356;2023-05-16T06:54:35;13.70;;;8.40;;
45762;SDS011;37512;52.408;13.356;2023-05-16T06:58:37;12.05;;;7.03;;
45762;SDS011;37512;52.408;13.356;2023-05-16T07:02:38;13.77;;;6.85;;
45762;SDS011;37512;52.408;13.356;2023-05-16T07:06:40;6.13;;;4.60;;
45762;SDS011;37512;52.408;13.356;2023-05-16T07:10:42;9.90;;;5.45;;
45762;SDS011;37512;52.408;13.356;2023-05-16T07:14:43;7.63;;;5.35;;
45762;SDS011;37512;52.408;13.356;2023-05-16T07:18:45;8.25;;;6.03;;
45762;SDS011;37512;52.408;13.356;2023-05-16T07:22:47;8.40;;;4.82;;
45762;SDS011;37512;52.408;13.356;2023-05-16T07:26:49;6.25;;;4.28;;
45762;SDS011;37512;52.408;13.356;2023-05-16T07:30:51;6.78;;;4.78;;
45762;SDS011;37512;52.408;13.356;2023-05-16T07:34:52;7.75;;;4.40;;
45762;SDS011;37512;52.408;13.356;2023-05-16T07:38:54;10.75;;;4.72;;
45762;SDS011;37512;52.408;13.356;2023-05-16T07:42:55;8.20;;;5.53;;
45762;SDS011;37512;52.408;13.356;2023-05-16T07:46:57;9.57;;;4.32;;
45762;SDS011;37512;52.408;13.356;2023-05-16T07:50:59;4.70;;;3.40;;
45762;SDS011;37512;52.408;13.356;2023-05-16T07:55:00;6.00;;;4.18;;
45762;SDS011;37512;52.408;13.356;2023-05-16T07:59:02;5.90;;;3.50;;
45762;SDS011;37512;52.408;13.356;2023-05-16T08:03:06;6.85;;;3.72;;
45762;SDS011;37512;52.408;13.356;2023-05-16T08:07:08;4.25;;;3.33;;
45762;SDS011;37512;52.408;13.356;2023-05-16T08:11:09;6.00;;;3.70;;
45762;SDS011;37512;52.408;13.356;2023-05-16T08:15:11;4.13;;;3.15;;
45762;SDS011;37512;52.408;13.356;2023-05-16T08:19:12;6.43;;;3.40;;
45762;SDS011;37512;52.408;13.356;2023-05-16T08:23:14;2.78;;;2.33;;
45762;SDS011;37512;52.408;13.356;2023-05-16T08:27:16;5.10;;;3.53;;
45762;SDS011;37512;52.408;13.356;2023-05-16T08:31:17;7.40;;;3.83;;
45762;SDS011;37512;52.408;13.356;2023-05-16T08:35:19;5.22;;;3.35;;
45762;SDS011;37512;52.408;13.356;2023-05-16T08:39:21;3.63;;;3.17;;
45762;SDS011;37512;52.408;13.356;2023-05-16T08:43:22;5.53;;;2.67;;
45762;SDS011;37512;52.408;13.356;2023-05-16T08:47:24;4.53;;;3.42;;
45762;SDS011;37512;52.408;13.356;2023-05-16T08:51:27;3.30;;;2.97;;
45762;SDS011;37512;52.408;13.356;2023-05-16T08:55:35;2.72;;;2.22;;
45762;SDS011;37512;52.408;13.356;2023-05-16T08:59:37;4.75;;;3.42;;
45762;SDS011;37512;52.408;13.356;2023-05-16T09:03:41;4.40;;;3.00;;
45762;SDS011;37512;52.408;13.356;2023-05-16T09:07:44;7.03;;;4.00;;
45762;SDS011;37512;52.408;13.356;2023-05-16T09:11:46;6.93;;;3.10;;
45762;SDS011;37512;52.408;13.356;2023-05-16T09:16:06;4.55;;;2.70;;
45762;SDS011;37512;52.408;13.356;2023-05-16T09:20:13;4.45;;;2.50;;
45762;SDS011;37512;52.408;13.356;2023-05-16T09:24:19;2.13;;;1.70;;
45762;SDS011;37512;52.408;13.356;2023-05-16T09:28:26;4.65;;;2.60;;
45762;SDS011;37512;52.408;13.356;2023-05-16T09:32:27;9.13;;;4.38;;
45762;SDS011;37512;52.408;13.356;2023-05-16T09:36:30;4.97;;;3.10;;
45762;SDS011;37512;52.408;13.356;2023-05-16T09:40:32;5.07;;;2.95;;
45762;SDS011;37512;52.408;13.356;2023-05-16T09:44:33;4.20;;;2.38;;
45762;SDS011;37512;52.408;13.356;2023-05-16T09:48:35;2.45;;;1.83;;
45762;SDS011;37512;52.408;13.356;2023-05-16T09:52:37;9.88;;;2.75;;
45762;SDS011;37512;52.408;13.356;2023-05-16T09:56:47;5.00;;;2.17;;
45762;SDS011;37512;52.408;13.356;2023-05-16T10:00:49;5.40;;;2.08;;
45762;SDS011;37512;52.408;13.356;2023-05-16T10:04:51;5.88;;;2.38;;
45762;SDS011;37512;52.408;13.356;2023-05-16T10:08:52;3.17;;;1.80;;
45762;SDS011;37512;52.408;13.356;2023-05-16T10:12:55;4.68;;;2.63;;
45762;SDS011;37512;52.408;13.356;2023-05-16T10:17:05;9.05;;;2.58;;
45762;SDS011;37512;52.408;13.356;2023-05-16T10:21:09;11.27;;;2.90;;
45762;SDS011;37512;52.408;13.356;2023-05-16T10:25:33;2.97;;;2.03;;
45762;SDS011;37512;52.408;13.356;2023-05-16T10:29:39;7.70;;;2.30;;
45762;SDS011;37512;52.408;13.356;2023-05-16T10:33:55;13.60;;;3.17;;
45762;SDS011;37512;52.408;13.356;2023-05-16T10:37:57;5.50;;;2.60;;
45762;SDS011;37512;52.408;13.356;2023-05-16T10:42:00;4.80;;;2.80;;
45762;SDS011;37512;52.408;13.356;2023-05-16T10:46:03;6.68;;;2.63;;
45762;SDS011;37512;52.408;13.356;2023-05-16T10:50:12;6.25;;;2.92;;
45762;SDS011;37512;52.408;13.356;2023-05-16T10:54:13;5.68;;;2.40;;
45762;SDS011;37512;52.408;13.356;2023-05-16T10:58:22;2.90;;;1.80;;
45762;SDS011;37512;52.408;13.356;2023-05-16T11:02:44;7.07;;;2.40;;
45762;SDS011;37512;52.408;13.356;2023-05-16T11:06:50;5.95;;;2.13;;
45762;SDS011;37512;52.408;13.356;2023-05-16T11:11:35;6.30;;;2.40;;
45762;SDS011;37512;52.408;13.356;2023-05-16T11:15:33;4.77;;;1.90;;
45762;SDS011;37512;52.408;13.356;2023-05-16T11:23:43;9.02;;;2.33;;
45762;SDS011;37512;52.408;13.356;2023-05-16T11:27:46;5.85;;;1.92;;
45762;SDS011;37512;52.408;13.356;2023-05-16T11:31:48;6.63;;;2.35;;
45762;SDS011;37512;52.408;13.356;2023-05-16T11:35:59;9.05;;;2.42;;
45762;SDS011;37512;52.408;13.356;2023-05-16T11:40:16;15.07;;;2.05;;
45762;SDS011;37512;52.408;13.356;2023-05-16T11:44:17;9.82;;;2.85;;
45762;SDS011;37512;52.408;13.356;2023-05-16T11:48:19;21.98;;;11.25;;
45762;SDS011;37512;52.408;13.356;2023-05-16T11:52:37;8.77;;;4.38;;
45762;SDS011;37512;52.408;13.356;2023-05-16T11:56:39;3.22;;;1.40;;
45762;SDS011;37512;52.408;13.356;2023-05-16T12:00:47;9.30;;;1.95;;
45762;SDS011;37512;52.408;13.356;2023-05-16T12:04:50;8.60;;;2.15;;
45762;SDS011;37512;52.408;13.356;2023-05-16T12:08:52;7.78;;;1.80;;
45762;SDS011;37512;52.408;13.356;2023-05-16T12:12:53;5.55;;;2.20;;
45762;SDS011;37512;52.408;13.356;2023-05-16T12:16:55;5.78;;;1.15;;
45762;SDS011;37512;52.408;13.356;2023-05-16T12:20:57;7.72;;;1.88;;
45762;SDS011;37512;52.408;13.356;2023-05-16T12:24:59;5.82;;;1.55;;
45762;SDS011;37512;52.408;13.356;2023-05-16T12:29:46;7.47;;;1.92;;
45762;SDS011;37512;52.408;13.356;2023-05-16T12:33:51;7.45;;;2.08;;
45762;SDS011;37512;52.408;13.356;2023-05-16T12:37:54;11.50;;;2.03;;
45762;SDS011;37512;52.408;13.356;2023-05-16T12:41:56;15.02;;;2.58;;
45762;SDS011;37512;52.408;13.356;2023-05-16T12:46:08;7.53;;;1.88;;
45762;SDS011;37512;52.408;13.356;2023-05-16T12:50:12;5.43;;;1.60;;
45762;SDS011;37512;52.408;13.356;2023-05-16T12:54:14;6.53;;;1.90;;
45762;SDS011;37512;52.408;13.356;2023-05-16T12:58:16;5.22;;;1.83;;
45762;SDS011;37512;52.408;13.356;2023-05-16T13:02:18;17.55;;;2.08;;
45762;SDS011;37512;52.408;13.356;2023-05-16T13:06:19;7.28;;;2.28;;
45762;SDS011;37512;52.408;13.356;2023-05-16T13:10:21;4.97;;;1.48;;
45762;SDS011;37512;52.408;13.356;2023-05-16T13:14:23;8.23;;;2.10;;
45762;SDS011;37512;52.408;13.356;2023-05-16T13:18:24;10.60;;;2.03;;
45762;SDS011;37512;52.408;13.356;2023-05-16T13:22:26;5.35;;;1.80;;
45762;SDS011;37512;52.408;13.356;2023-05-16T13:26:28;12.25;;;2.85;;
45762;SDS011;37512;52.408;13.356;2023-05-16T13:30:30;4.32;;;1.48;;
45762;SDS011;37512;52.408;13.356;2023-05-16T13:34:32;7.03;;;1.45;;
45762;SDS011;37512;52.408;13.356;2023-05-16T13:38:34;5.70;;;1.65;;
45762;SDS011;37512;52.408;13.356;2023-05-16T13:42:36;11.23;;;1.60;;
45762;SDS011;37512;52.408;13.356;2023-05-16T13:46:39;4.53;;;1.40;;
45762;SDS011;37512;52.408;13.356;2023-05-16T13:50:40;5.88;;;1.35;;
45762;SDS011;37512;52.408;13.356;2023-05-16T13:54:44;5.88;;;1.20;;
45762;SDS011;37512;52.408;13.356;2023-05-16T13:58:46;6.18;;;1.83;;
45762;SDS011;37512;52.408;13.356;2023-05-16T14:03:02;14.45;;;2.15;;
45762;SDS011;37512;52.408;13.356;2023-05-16T14:07:04;6.13;;;1.40;;
45762;SDS011;37512;52.408;13.356;2023-05-16T14:11:05;7.38;;;1.60;;
45762;SDS011;37512;52.408;13.356;2023-05-16T14:15:07;6.68;;;1.73;;
45762;SDS011;37512;52.408;13.356;2023-05-16T14:19:09;4.43;;;1.20;;
45762;SDS011;37512;52.408;13.356;2023-05-16T14:23:10;6.30;;;1.65;;
45762;SDS011;37512;52.408;13.356;2023-05-16T14:27:12;6.07;;;1.42;;
45762;SDS011;37512;52.408;13.356;2023-05-16T14:31:15;5.63;;;1.83;;
45762;SDS011;37512;52.408;13.356;2023-05-16T14:35:16;5.70;;;2.20;;
45762;SDS011;37512;52.408;13.356;2023-05-16T14:39:18;2.10;;;1.42;;
45762;SDS011;37512;52.408;13.356;2023-05-16T14:43:20;8.30;;;1.60;;
45762;SDS011;37512;52.408;13.356;2023-05-16T14:47:22;7.20;;;1.63;;
45762;SDS011;37512;52.408;13.356;2023-05-16T14:51:24;6.05;;;1.02;;
45762;SDS011;37512;52.408;13.356;2023-05-16T14:55:25;2.90;;;1.33;;
45762;SDS011;37512;52.408;13.356;2023-05-16T14:59:27;3.05;;;1.00;;
45762;SDS011;37512;52.408;13.356;2023-05-16T15:03:29;8.10;;;2.00;;
45762;SDS011;37512;52.408;13.356;2023-05-16T15:07:51;6.05;;;1.10;;
45762;SDS011;37512;52.408;13.356;2023-05-16T15:11:52;3.72;;;1.05;;
45762;SDS011;37512;52.408;13.356;2023-05-16T15:15:54;55.22;;;36.58;;
45762;SDS011;37512;52.408;13.356;2023-05-16T15:19:57;3.67;;;1.75;;
45762;SDS011;37512;52.408;13.356;2023-05-16T15:23:58;5.00;;;1.48;;
45762;SDS011;37512;52.408;13.356;2023-05-16T15:28:01;5.18;;;1.52;;
45762;SDS011;37512;52.408;13.356;2023-05-16T15:32:03;6.45;;;1.90;;
45762;SDS011;37512;52.408;13.356;2023-05-16T15:36:08;4.82;;;1.17;;
45762;SDS011;37512;52.408;13.356;2023-05-16T15:40:09;2.80;;;1.50;;
45762;SDS011;37512;52.408;13.356;2023-05-16T15:44:11;3.63;;;1.17;;
45762;SDS011;37512;52.408;13.356;2023-05-16T15:48:13;4.45;;;1.08;;
45762;SDS011;37512;52.408;13.356;2023-05-16T15:52:15;3.00;;;1.10;;
45762;SDS011;37512;52.408;13.356;2023-05-16T15:56:16;3.22;;;1.05;;
45762;SDS011;37512;52.408;13.356;2023-05-16T16:00:19;8.38;;;1.20;;
45762;SDS011;37512;52.408;13.356;2023-05-16T16:04:21;5.95;;;1.48;;
45762;SDS011;37512;52.408;13.356;2023-05-16T16:08:24;3.60;;;1.15;;
45762;SDS011;37512;52.408;13.356;2023-05-16T16:12:27;4.00;;;1.70;;
45762;SDS011;37512;52.408;13.356;2023-05-16T16:16:31;4.45;;;0.90;;
45762;SDS011;37512;52.408;13.356;2023-05-16T16:20:33;5.72;;;1.15;;
45762;SDS011;37512;52.408;13.356;2023-05-16T16:24:35;3.05;;;1.50;;
45762;SDS011;37512;52.408;13.356;2023-05-16T16:28:36;5.38;;;2.22;;
45762;SDS011;37512;52.408;13.356;2023-05-16T16:32:38;5.22;;;1.70;;
45762;SDS011;37512;52.408;13.356;2023-05-16T16:36:40;2.90;;;1.05;;
45762;SDS011;37512;52.408;13.356;2023-05-16T16:40:42;2.22;;;1.10;;
45762;SDS011;37512;52.408;13.356;2023-05-16T16:44:43;3.53;;;1.40;;
45762;SDS011;37512;52.408;13.356;2023-05-16T16:48:45;3.97;;;1.38;;
45762;SDS011;37512;52.408;13.356;2023-05-16T16:52:47;7.10;;;1.45;;
45762;SDS011;37512;52.408;13.356;2023-05-16T16:56:48;7.78;;;1.85;;
45762;SDS011;37512;52.408;13.356;2023-05-16T17:00:52;4.55;;;1.40;;
45762;SDS011;37512;52.408;13.356;2023-05-16T17:04:54;2.88;;;0.95;;
45762;SDS011;37512;52.408;13.356;2023-05-16T17:08:56;7.05;;;1.65;;
45762;SDS011;37512;52.408;13.356;2023-05-16T17:12:57;2.05;;;1.27;;
45762;SDS011;37512;52.408;13.356;2023-05-16T17:17:06;1.80;;;0.82;;
45762;SDS011;37512;52.408;13.356;2023-05-16T17:21:07;4.40;;;1.23;;
45762;SDS011;37512;52.408;13.356;2023-05-16T17:25:12;2.65;;;0.88;;
45762;SDS011;37512;52.408;13.356;2023-05-16T17:29:14;3.88;;;1.40;;
45762;SDS011;37512;52.408;13.356;2023-05-16T17:33:17;5.85;;;1.75;;
45762;SDS011;37512;52.408;13.356;2023-05-16T17:37:19;3.08;;;1.25;;
45762;SDS011;37512;52.408;13.356;2023-05-16T17:41:21;5.45;;;1.23;;
45762;SDS011;37512;52.408;13.356;2023-05-16T17:45:23;2.70;;;1.02;;
45762;SDS011;37512;52.408;13.356;2023-05-16T17:49:27;5.13;;;0.95;;
45762;SDS011;37512;52.408;13.356;2023-05-16T17:53:29;2.08;;;0.90;;
45762;SDS011;37512;52.408;13.356;2023-05-16T17:57:31;3.90;;;1.02;;
45762;SDS011;37512;52.408;13.356;2023-05-16T18:01:34;4.13;;;1.33;;
45762;SDS011;37512;52.408;13.356;2023-05-16T18:05:35;5.88;;;1.30;;
45762;SDS011;37512;52.408;13.356;2023-05-16T18:09:37;4.72;;;1.02;;
45762;SDS011;37512;52.408;13.356;2023-05-16T18:13:39;5.85;;;1.27;;
45762;SDS011;37512;52.408;13.356;2023-05-16T18:17:40;3.60;;;1.73;;
45762;SDS011;37512;52.408;13.356;2023-05-16T18:21:42;5.85;;;3.67;;
45762;SDS011;37512;52.408;13.356;2023-05-16T18:25:45;5.63;;;2.08;;
45762;SDS011;37512;52.408;13.356;2023-05-16T18:29:46;2.88;;;1.33;;
45762;SDS011;37512;52.408;13.356;2023-05-16T18:33:48;3.45;;;1.17;;
45762;SDS011;37512;52.408;13.356;2023-05-16T18:37:50;3.97;;;2.40;;
45762;SDS011;37512;52.408;13.356;2023-05-16T18:41:51;4.25;;;1.40;;
45762;SDS011;37512;52.408;13.356;2023-05-16T18:45:53;4.00;;;0.95;;
45762;SDS011;37512;52.408;13.356;2023-05-16T18:49:55;3.05;;;1.17;;
45762;SDS011;37512;52.408;13.356;2023-05-16T18:53:56;9.57;;;1.92;;
45762;SDS011;37512;52.408;13.356;2023-05-16T18:57:58;2.35;;;1.25;;
45762;SDS011;37512;52.408;13.356;2023-05-16T19:01:59;7.18;;;1.60;;
45762;SDS011;37512;52.408;13.356;2023-05-16T19:06:01;5.13;;;2.20;;
45762;SDS011;37512;52.408;13.356;2023-05-16T19:10:02;5.78;;;1.67;;
45762;SDS011;37512;52.408;13.356;2023-05-16T19:14:05;3.17;;;1.60;;
45762;SDS011;37512;52.408;13.356;2023-05-16T19:18:06;2.65;;;1.20;;
45762;SDS011;37512;52.408;13.356;2023-05-16T19:22:08;5.88;;;1.45;;
45762;SDS011;37512;52.408;13.356;2023-05-16T19:26:10;4.50;;;1.75;;
45762;SDS011;37512;52.408;13.356;2023-05-16T19:30:13;3.17;;;1.25;;
45762;SDS011;37512;52.408;13.356;2023-05-16T19:34:14;3.03;;;1.40;;
45762;SDS011;37512;52.408;13.356;2023-05-16T19:38:19;11.63;;;2.15;;
45762;SDS011;37512;52.408;13.356;2023-05-16T19:42:22;2.03;;;1.00;;
45762;SDS011;37512;52.408;13.356;2023-05-16T19:46:23;14.48;;;5.55;;
45762;SDS011;37512;52.408;13.356;2023-05-16T19:50:25;5.00;;;1.27;;
45762;SDS011;37512;52.408;13.356;2023-05-16T19:54:27;2.92;;;1.40;;
45762;SDS011;37512;52.408;13.356;2023-05-16T19:58:28;3.58;;;1.10;;
45762;SDS011;37512;52.408;13.356;2023-05-16T20:02:30;2.88;;;1.30;;
45762;SDS011;37512;52.408;13.356;2023-05-16T20:06:33;3.88;;;1.10;;
45762;SDS011;37512;52.408;13.356;2023-05-16T20:10:34;4.45;;;1.55;;
45762;SDS011;37512;52.408;13.356;2023-05-16T20:14:36;4.90;;;1.05;;
45762;SDS011;37512;52.408;13.356;2023-05-16T20:18:37;2.75;;;0.98;;
45762;SDS011;37512;52.408;13.356;2023-05-16T20:22:39;4.57;;;1.48;;
45762;SDS011;37512;52.408;13.356;2023-05-16T20:26:42;5.85;;;1.15;;
45762;SDS011;37512;52.408;13.356;2023-05-16T20:30:43;5.18;;;1.95;;
45762;SDS011;37512;52.408;13.356;2023-05-16T20:34:45;2.13;;;0.90;;
45762;SDS011;37512;52.408;13.356;2023-05-16T20:38:47;2.45;;;1.00;;
45762;SDS011;37512;52.408;13.356;2023-05-16T20:42:48;4.20;;;1.13;;
45762;SDS011;37512;52.408;13.356;2023-05-16T20:46:50;4.47;;;1.08;;
45762;SDS011;37512;52.408;13.356;2023-05-16T20:50:51;3.67;;;0.88;;
45762;SDS011;37512;52.408;13.356;2023-05-16T20:54:54;4.15;;;1.45;;
45762;SDS011;37512;52.408;13.356;2023-05-16T20:58:58;3.75;;;1.83;;
45762;SDS011;37512;52.408;13.356;2023-05-16T21:02:59;4.88;;;1.70;;
45762;SDS011;37512;52.408;13.356;2023-05-16T21:07:01;4.00;;;1.20;;
45762;SDS011;37512;52.408;13.356;2023-05-16T21:11:05;3.03;;;1.40;;
45762;SDS011;37512;52.408;13.356;2023-05-16T21:15:06;4.65;;;1.05;;
45762;SDS011;37512;52.408;13.356;2023-05-16T21:19:08;2.42;;;1.33;;
45762;SDS011;37512;52.408;13.356;2023-05-16T21:23:10;3.17;;;1.13;;
45762;SDS011;37512;52.408;13.356;2023-05-16T21:27:12;4.25;;;1.27;;
45762;SDS011;37512;52.408;13.356;2023-05-16T21:31:14;2.88;;;1.30;;
45762;SDS011;37512;52.408;13.356;2023-05-16T21:35:16;3.30;;;1.13;;
45762;SDS011;37512;52.408;13.356;2023-05-16T21:39:17;4.97;;;1.10;;
45762;SDS011;37512;52.408;13.356;2023-05-16T21:43:19;2.60;;;1.13;;
45762;SDS011;37512;52.408;13.356;2023-05-16T21:47:20;6.50;;;1.33;;
45762;SDS011;37512;52.408;13.356;2023-05-16T21:51:22;2.08;;;1.13;;
45762;SDS011;37512;52.408;13.356;2023-05-16T21:55:23;1.52;;;0.90;;
45762;SDS011;37512;52.408;13.356;2023-05-16T21:59:26;2.40;;;1.00;;
45762;SDS011;37512;52.408;13.356;2023-05-16T22:03:27;5.43;;;1.23;;
45762;SDS011;37512;52.408;13.356;2023-05-16T22:07:29;2.75;;;1.08;;
45762;SDS011;37512;52.408;13.356;2023-05-16T22:11:31;6.28;;;1.85;;
45762;SDS011;37512;52.408;13.356;2023-05-16T22:15:35;4.43;;;1.10;;
45762;SDS011;37512;52.408;13.356;2023-05-16T22:19:37;2.60;;;1.33;;
45762;SDS011;37512;52.408;13.356;2023-05-16T22:23:39;3.13;;;1.20;;
45762;SDS011;37512;52.408;13.356;2023-05-16T22:27:40;5.18;;;1.30;;
45762;SDS011;37512;52.408;13.356;2023-05-16T22:31:42;4.22;;;1.02;;
45762;SDS011;37512;52.408;13.356;2023-05-16T22:35:44;3.00;;;1.27;;
45762;SDS011;37512;52.408;13.356;2023-05-16T22:39:48;2.53;;;1.13;;
45762;SDS011;37512;52.408;13.356;2023-05-16T22:43:50;5.07;;;1.23;;
45762;SDS011;37512;52.408;13.356;2023-05-16T22:47:51;3.95;;;1.23;;
45762;SDS011;37512;52.408;13.356;2023-05-16T22:51:53;6.72;;;1.58;;
45762;SDS011;37512;52.408;13.356;2023-05-16T22:55:54;3.53;;;1.00;;
45762;SDS011;37512;52.408;13.356;2023-05-16T22:59:56;1.75;;;0.98;;
45762;SDS011;37512;52.408;13.356;2023-05-16T23:03:58;5.00;;;1.27;;
45762;SDS011;37512;52.408;13.356;2023-05-16T23:07:59;6.47;;;1.25;;
45762;SDS011;37512;52.408;13.356;2023-05-16T23:12:01;2.17;;;1.40;;
45762;SDS011;37512;52.408;13.356;2023-05-16T23:16:03;2.33;;;1.20;;
45762;SDS011;37512;52.408;13.356;2023-05-16T23:20:04;3.80;;;1.50;;
45762;SDS011;37512;52.408;13.356;2023-05-16T23:24:07;2.65;;;1.15;;
45762;SDS011;37512;52.408;13.356;2023-05-16T23:28:08;7.18;;;1.27;;
45762;SDS011;37512;52.408;13.356;2023-05-16T23:32:10;3.03;;;1.00;;
45762;SDS011;37512;52.408;13.356;2023-05-16T23:36:12;4.78;;;1.33;;
45762;SDS011;37512;52.408;13.356;2023-05-16T23:40:13;2.90;;;1.20;;
45762;SDS011;37512;52.408;13.356;2023-05-16T23:44:15;5.05;;;1.40;;
45762;SDS011;37512;52.408;13.356;2023-05-16T23:48:16;9.50;;;1.38;;
45762;SDS011;37512;52.408;13.356;2023-05-16T23:52:18;2.60;;;1.23;;
45762;SDS011;37512;52.408;13.356;2023-05-16T23:56:19;5.35;;;1.42;;
